Aérodrome :
LOGIN :

S'inscrire | Disclaimer

   EN    FR    IT 

 










Légende :    VFR   VFR Marginal   IFR   IFR Intensif   IFR Très Intensif
Visi : 
Plafond : 
>= 8 km
>= 3000ft
5 à 8 km
1000 à 3000 ft
1500m à 5 km
500 à 1000 ft
800 à 1500m
200 à 500 ft
< 800m
< 200 ft
Symboles :   Orages  Brouillard  Fortes neiges  Fortes précipitations  Vent > 20 kt
SIGMETs :   Divers  Orages  Givrage  Turbulence  Onde Orograph.  Cendres Volcan.







- Altitude de l'aérodrome : 1789 ft
- Code IATA : PRN


BKPR - Pristina

DERNIER METAR :
  • 172230Z 00000KT 0100 FZFG BKN003 M12/M15 Q1018 NOSIG RMK 17010095

METARs EXPIRÉS :
  • 172200Z VRB01KT 0300 FZFG BKN005 M12/M15 Q1018 TEMPO 0100 RMK 17010095
  • 172130Z 00000KT 0500 R17/0200VP1500 FZFG BKN005 M12/M15 Q1018 TEMPO 0100 RMK 17010095
  • 172100Z VRB01KT 0250 FZFG BKN003 M12/M14 Q1018 TEMPO 0100 RMK 17010095
  • 172030Z 00000KT 1200 R17/P1500 BR SCT007 M10/M13 Q1018 NOSIG RMK 17010095
  • 172000Z VRB01KT 2000 BR SCT010 M09/M11 Q1018 NOSIG RMK 17010095

TAF TAF BKPR
Valide du 17 à 18h jusqu'au 18 à 18h UTC


171730Z 1718/1818 VRB03KT 3000 BR NSC
BECMG 1718/1721 1200 BR
BECMG 1721/1724 0150 FZFG BKN002
BECMG 1809/1811 3000 BR SCT005
BECMG 1811/1813 6000 NSW
Pas de NOTAMs connus pour ce terrain.



MET'MAP, la Météo Aéronautique d'un coup d'oeil ! - Copyright ORBIFLY Décembre 2007 - Disclaimer

ORBIFLY MET'MAP TEAM :

Programmation & Développement : Alexandra Zaïnal
Conception & Développement : Baudouin d'Aumeries
Co-Programmation & Développement : Marc-Olivier Méhu
Soutien technique & logistique : Manuel Goepfert

Contact : metmap@orbifly.com




SOURCES & CREDITS :

   NOAA